WZZ95P EPGD-EDDH
Flight info
| Callsign | WZZ95P |
|---|---|
| Flight time | N/A |
| Altitude | 38000 |
| Route | DEXIR T671 AGODU DCT BODLA L733 TABOK DCT RADEL DCT PODUS L619 BUMIL/N0354F240 M748 RARUP RARUP6A |
| Aircraft | A20N/M-SDE2E3FGHIRWXY/LB1 |
Departure
| Time | N/A |
|---|---|
| Airport | Gdańsk Lech Wałęsa Airport (EPGD) |
Arrival
| Time | 2026-04-30 17:54 |
|---|---|
| Airport | Hamburg Helmut Schmidt Airport (EDDH) |
| Time | Latitude | Longitude | Altitude | Speed | Heading |
|---|---|---|---|---|---|
| 2026-04-30 17:39 | 53.41089 | 10.44486 | 11431 ft | 309 kts | 290° |
| 2026-04-30 17:41 | 53.46114 | 10.16822 | 10945 ft | 310 kts | 289° |
| 2026-04-30 17:42 | 53.47353 | 10.09935 | 10464 ft | 307 kts | 289° |
| 2026-04-30 17:42 | 53.49195 | 9.99594 | 10428 ft | 308 kts | 285° |
| 2026-04-30 17:43 | 53.48486 | 9.92669 | 10426 ft | 309 kts | 236° |
| 2026-04-30 17:44 | 53.44879 | 9.83779 | 9790 ft | 305 kts | 234° |
| 2026-04-30 17:44 | 53.41370 | 9.75160 | 8902 ft | 287 kts | 234° |
| 2026-04-30 17:46 | 53.36144 | 9.62201 | 7749 ft | 262 kts | 234° |
| 2026-04-30 17:47 | 53.36616 | 9.51948 | 6452 ft | 247 kts | 343° |
| 2026-04-30 17:48 | 53.41714 | 9.57108 | 5111 ft | 227 kts | 51° |
| 2026-04-30 17:48 | 53.44893 | 9.63150 | 3495 ft | 235 kts | 51° |
| 2026-04-30 17:49 | 53.49457 | 9.71941 | 2995 ft | 253 kts | 50° |
| 2026-04-30 17:50 | 53.53753 | 9.80298 | 2575 ft | 225 kts | 51° |
| 2026-04-30 17:51 | 53.56784 | 9.86272 | 1660 ft | 216 kts | 51° |
| 2026-04-30 17:52 | 53.59413 | 9.91480 | 860 ft | 186 kts | 51° |
| 2026-04-30 17:53 | 53.62566 | 9.97872 | 48 ft | 81 kts | 51° |
| 2026-04-30 17:54 | 53.62700 | 9.98419 | 50 ft | 0 kts | 142° |
| 2026-04-30 17:55 | 53.62682 | 9.98445 | 50 ft | 8 kts | 134° |
| 2026-04-30 17:56 | 53.62737 | 9.98647 | 50 ft | 9 kts | 50° |
| 2026-04-30 17:57 | 53.62901 | 9.98980 | 50 ft | 0 kts | 51° |
| 2026-04-30 17:58 | 53.62953 | 9.99086 | 50 ft | 13 kts | 49° |
| 2026-04-30 17:59 | 53.62964 | 9.99353 | 50 ft | 2 kts | 155° |
| 2026-04-30 18:00 | 53.62906 | 9.99269 | 47 ft | 1 kts | 246° |
| 2026-04-30 18:00 | 53.62903 | 9.99258 | 48 ft | 0 kts | 244° |